Val-Brillant, Canada
Current Conditions -  °F | °C
As of 12:00 AM on Sunday 21 Dec 2014 (Local Time) from CYYY Reporting Station
Light Snow Light Snow  
Wind Chill:   Ceiling: 1000
Heat Index: 18°   Visibility: 10mi
Dew Point: 12°   Wind: 12mph
Humidity: 79%   Direction: 170°S
Pressure: 30.38"   Gusts: NA
Location:  48.53°N, 67.57°W
Report Text: CYYY 210500Z 17010KT 10SM -SN OVC010 M08/M11 A3038 RMK SF8 SLP293
Loading
Personal Weather Stations






























Interactive Weather Map New forecast layout! Learn more

10-Day Weather Forecast

Advertisements
Track Severe Weather on mobile